Schedule Details


Flight Number: CTN305
Departure: Eleftherios Venizelos Intl (LGAV) at 21:50
Arrival: Kastela (LDSP) at 22:30
Route: RIMAX UL613 XANIS L995 VARDI UL995 KRK UL53 OLGAT L53 ENOXA L862 RILIM

Weather Information
LGAV 290120Z 26011KT 9999 FEW030 12/06 Q1015 NOSIG
LDSP 290100Z AUTO 29006KT CAVOK 12/08 Q1008
Schedule Frequency

Route Map